createdAt,value
2022-10-02T00:00:34.440Z,16.95
2022-10-02T00:03:09.146Z,16.88
2022-10-02T00:05:41.954Z,16.73
2022-10-02T00:08:24.353Z,16.65
2022-10-02T00:11:23.335Z,16.65
2022-10-02T00:13:57.936Z,16.61
2022-10-02T00:16:50.274Z,16.57
2022-10-02T00:19:18.849Z,16.54
2022-10-02T00:22:10.155Z,16.55
2022-10-02T00:25:07.593Z,16.45
2022-10-02T00:28:03.984Z,16.45
2022-10-02T00:30:37.210Z,16.50
2022-10-02T00:33:18.726Z,16.89
2022-10-02T00:35:51.095Z,16.85
2022-10-02T00:38:38.538Z,16.77
2022-10-02T00:41:42.626Z,16.68
2022-10-02T00:44:31.549Z,16.65
2022-10-02T00:47:50.079Z,16.71
2022-10-02T00:50:22.509Z,16.79
2022-10-02T00:53:13.503Z,16.86
2022-10-02T00:56:12.565Z,16.77
2022-10-02T00:58:53.115Z,16.84
2022-10-02T01:01:25.945Z,16.79
2022-10-02T01:03:54.663Z,16.87
2022-10-02T01:06:25.574Z,16.80
2022-10-02T01:08:52.190Z,16.68
2022-10-02T01:11:21.271Z,16.66
2022-10-02T01:13:48.488Z,16.63
2022-10-02T01:16:16.338Z,16.57
2022-10-02T01:18:46.054Z,16.55
2022-10-02T01:21:18.849Z,16.57
2022-10-02T01:23:50.996Z,16.78
2022-10-02T01:26:18.043Z,16.99
2022-10-02T01:28:44.706Z,17.06
2022-10-02T01:31:14.710Z,17.15
2022-10-02T01:33:45.337Z,16.98
2022-10-02T01:36:13.738Z,17.06
2022-10-02T01:38:41.908Z,17.05
2022-10-02T01:41:12.240Z,16.98
2022-10-02T01:43:58.018Z,16.81
2022-10-02T01:46:29.389Z,16.69
2022-10-02T01:49:04.756Z,16.63
2022-10-02T01:52:06.175Z,16.67
2022-10-02T01:54:54.081Z,16.66
2022-10-02T01:57:41.713Z,16.68
2022-10-02T02:00:25.060Z,16.80
2022-10-02T02:02:56.233Z,16.84
2022-10-02T02:05:36.324Z,16.71
2022-10-02T02:08:30.438Z,16.63
2022-10-02T02:11:19.513Z,16.52
2022-10-02T02:14:07.524Z,16.57
2022-10-02T02:16:42.212Z,16.59
2022-10-02T02:19:29.048Z,16.69
2022-10-02T02:22:07.846Z,16.94
2022-10-02T02:24:40.222Z,16.95
2022-10-02T02:27:13.869Z,17.09
2022-10-02T02:29:43.245Z,16.89
2022-10-02T02:32:16.279Z,16.81
2022-10-02T02:34:50.744Z,16.76
2022-10-02T02:37:21.726Z,16.72
2022-10-02T02:39:55.791Z,17.02
2022-10-02T02:42:27.465Z,17.09
2022-10-02T02:45:03.431Z,17.12
2022-10-02T02:47:48.158Z,17.01
2022-10-02T02:50:57.455Z,17.08
2022-10-02T02:53:33.472Z,17.19
2022-10-02T02:56:02.126Z,17.06
2022-10-02T02:58:45.379Z,16.98
2022-10-02T03:01:11.998Z,16.84
2022-10-02T03:03:38.597Z,16.83
2022-10-02T03:06:18.428Z,16.89
2022-10-02T03:08:46.825Z,16.94
2022-10-02T03:11:23.151Z,16.75
2022-10-02T03:13:58.903Z,16.76
2022-10-02T03:16:34.480Z,16.83
2022-10-02T03:19:46.355Z,16.93
2022-10-02T03:22:28.071Z,16.85
2022-10-02T03:25:09.140Z,16.81
2022-10-02T03:27:35.527Z,16.63
2022-10-02T03:30:09.247Z,16.66
2022-10-02T03:32:37.691Z,16.81
2022-10-02T03:35:07.307Z,16.82
2022-10-02T03:37:33.919Z,16.69
2022-10-02T03:40:01.226Z,16.84
2022-10-02T03:42:32.146Z,16.64
2022-10-02T03:44:58.639Z,16.63
2022-10-02T03:47:25.153Z,16.76
2022-10-02T03:49:51.677Z,16.80
2022-10-02T03:52:20.386Z,16.65
2022-10-02T03:54:51.718Z,16.51
2022-10-02T03:57:22.140Z,16.51
2022-10-02T04:00:12.709Z,16.49
2022-10-02T04:02:45.004Z,16.49
2022-10-02T04:05:33.899Z,16.55
2022-10-02T04:08:08.590Z,16.47
2022-10-02T04:11:03.249Z,16.39
2022-10-02T04:13:59.038Z,16.28
2022-10-02T04:16:54.831Z,16.54
2022-10-02T04:19:24.397Z,16.41
2022-10-02T04:21:56.233Z,16.39
2022-10-02T04:24:36.759Z,16.34
2022-10-02T04:27:26.461Z,16.52
2022-10-02T04:29:59.961Z,16.60
2022-10-02T04:32:30.048Z,16.47
2022-10-02T04:34:57.176Z,16.37
2022-10-02T04:37:40.205Z,16.30
2022-10-02T04:40:15.628Z,16.40
2022-10-02T04:43:19.114Z,16.57
2022-10-02T04:46:27.122Z,16.54
2022-10-02T04:48:59.931Z,16.41
2022-10-02T04:51:38.654Z,16.30
2022-10-02T04:54:37.761Z,16.13
2022-10-02T04:57:16.173Z,16.07
2022-10-02T05:00:09.055Z,16.00
2022-10-02T05:03:23.199Z,15.94
2022-10-02T05:06:09.770Z,15.82
2022-10-02T05:08:54.383Z,15.96
2022-10-02T05:11:33.189Z,15.99
2022-10-02T05:14:45.355Z,15.92
2022-10-02T05:17:30.557Z,15.92
2022-10-02T05:20:03.589Z,15.91
2022-10-02T05:22:57.229Z,15.89
2022-10-02T05:25:50.324Z,16.20
2022-10-02T05:28:16.841Z,16.15
2022-10-02T05:31:05.101Z,16.07
2022-10-02T05:33:48.489Z,16.07
2022-10-02T05:36:15.141Z,16.13
2022-10-02T05:38:47.820Z,16.12
2022-10-02T05:41:17.319Z,16.30
2022-10-02T05:43:55.233Z,16.09
2022-10-02T05:46:25.967Z,15.96
2022-10-02T05:49:02.773Z,15.88
2022-10-02T05:51:44.233Z,15.87
2022-10-02T05:54:30.170Z,15.92
2022-10-02T05:57:05.012Z,16.00
2022-10-02T05:59:49.763Z,15.89
2022-10-02T06:02:32.633Z,15.84
2022-10-02T06:05:13.430Z,15.80
2022-10-02T06:07:44.484Z,15.84
2022-10-02T06:10:23.341Z,15.72
2022-10-02T06:13:08.623Z,15.77
2022-10-02T06:16:01.251Z,15.73
2022-10-02T06:18:33.604Z,15.70
2022-10-02T06:21:07.445Z,15.64
2022-10-02T06:23:45.707Z,15.68
2022-10-02T06:26:49.340Z,15.71
2022-10-02T06:29:39.696Z,15.71
2022-10-02T06:32:30.664Z,15.79
2022-10-02T06:34:57.171Z,15.83
2022-10-02T06:37:36.708Z,15.80
2022-10-02T06:40:41.816Z,15.93
2022-10-02T06:43:18.228Z,16.01
2022-10-02T06:46:00.688Z,15.98
2022-10-02T06:48:58.621Z,15.98
2022-10-02T06:51:51.410Z,16.01
2022-10-02T06:54:36.187Z,16.09
2022-10-02T06:57:24.591Z,16.04
2022-10-02T07:00:00.106Z,16.06
2022-10-02T07:02:51.715Z,16.10
2022-10-02T07:05:45.704Z,16.01
2022-10-02T07:08:25.478Z,15.94
2022-10-02T07:11:09.088Z,15.95
2022-10-02T07:14:10.975Z,16.03
2022-10-02T07:17:00.515Z,16.16
2022-10-02T07:19:39.220Z,16.38
2022-10-02T07:22:32.423Z,16.64
2022-10-02T07:25:10.257Z,16.96
2022-10-02T07:28:06.165Z,17.34
2022-10-02T07:30:52.904Z,17.63
2022-10-02T07:33:29.253Z,17.84
2022-10-02T07:36:11.981Z,17.95
2022-10-02T07:39:01.143Z,18.35
2022-10-02T07:41:45.853Z,18.75
2022-10-02T07:44:46.466Z,19.33
2022-10-02T07:47:36.248Z,19.65
2022-10-02T07:50:40.338Z,20.07
2022-10-02T07:53:31.051Z,20.42
2022-10-02T07:56:00.207Z,21.07
2022-10-02T07:58:41.696Z,21.77
2022-10-02T08:01:14.236Z,22.11
2022-10-02T08:03:48.533Z,22.43
2022-10-02T08:06:16.111Z,22.18
2022-10-02T08:08:56.771Z,22.03
2022-10-02T08:11:31.890Z,22.05
2022-10-02T08:14:11.487Z,22.32
2022-10-02T08:17:01.304Z,22.30
2022-10-02T08:19:36.706Z,22.02
2022-10-02T08:22:30.686Z,22.59
2022-10-02T08:25:04.539Z,22.73
2022-10-02T08:28:04.039Z,22.68
2022-10-02T08:30:33.695Z,20.97
2022-10-02T08:33:10.771Z,20.62
2022-10-02T08:36:02.254Z,20.24
2022-10-02T08:38:41.586Z,20.16
2022-10-02T08:41:16.057Z,19.99
2022-10-02T08:44:08.359Z,19.78
2022-10-02T08:46:40.707Z,19.90
2022-10-02T08:49:32.383Z,20.14
2022-10-02T08:52:44.303Z,20.19
2022-10-02T08:55:13.724Z,20.14
2022-10-02T08:58:03.553Z,20.01
2022-10-02T09:00:35.998Z,19.59
2022-10-02T09:03:02.498Z,19.44
2022-10-02T09:06:18.342Z,19.00
2022-10-02T09:09:03.537Z,18.93
2022-10-02T09:12:09.099Z,18.91
2022-10-02T09:15:13.051Z,18.98
2022-10-02T09:18:14.452Z,19.33
2022-10-02T09:21:04.449Z,19.18
2022-10-02T09:23:48.266Z,19.16
2022-10-02T09:26:19.122Z,19.12
2022-10-02T09:28:48.595Z,19.07
2022-10-02T09:31:56.430Z,19.20
2022-10-02T09:34:52.185Z,19.26
2022-10-02T09:37:59.868Z,19.38
2022-10-02T09:40:37.574Z,19.31
2022-10-02T09:43:31.918Z,19.25
2022-10-02T09:46:20.048Z,19.53
2022-10-02T09:49:33.421Z,19.19
2022-10-02T09:52:21.370Z,19.21
2022-10-02T09:55:18.560Z,19.53
2022-10-02T09:58:03.535Z,19.77
2022-10-02T10:00:54.395Z,19.81
2022-10-02T10:03:31.304Z,19.67
2022-10-02T10:06:16.198Z,19.34
2022-10-02T10:08:51.857Z,19.40
2022-10-02T10:11:43.158Z,19.74
2022-10-02T10:14:38.334Z,19.98
2022-10-02T10:17:22.770Z,20.46
2022-10-02T10:20:14.299Z,20.67
2022-10-02T10:23:00.029Z,20.57
2022-10-02T10:25:41.824Z,20.73
2022-10-02T10:28:19.705Z,21.08
2022-10-02T10:31:02.230Z,21.08
2022-10-02T10:33:37.300Z,21.75
2022-10-02T10:36:47.078Z,23.57
2022-10-02T10:39:46.802Z,23.11
2022-10-02T10:42:56.196Z,22.86
2022-10-02T10:45:43.377Z,22.42
2022-10-02T10:48:34.902Z,22.55
2022-10-02T10:51:21.974Z,22.36
2022-10-02T10:54:12.132Z,22.35
2022-10-02T10:57:04.468Z,23.15
2022-10-02T10:59:46.071Z,24.48
2022-10-02T11:02:35.911Z,25.79
2022-10-02T11:05:02.585Z,25.97
2022-10-02T11:07:50.517Z,26.67
2022-10-02T11:10:20.036Z,27.41
2022-10-02T11:12:52.263Z,27.52
2022-10-02T11:15:54.790Z,28.25
2022-10-02T11:18:47.536Z,26.83
2022-10-02T11:21:21.075Z,27.13
2022-10-02T11:24:08.740Z,26.36
2022-10-02T11:27:04.838Z,25.44
2022-10-02T11:30:09.293Z,25.03
2022-10-02T11:33:10.728Z,24.22
2022-10-02T11:36:06.176Z,23.58
2022-10-02T11:39:04.530Z,23.45
2022-10-02T11:41:34.344Z,24.22
2022-10-02T11:44:25.871Z,24.09
2022-10-02T11:47:10.617Z,23.59
2022-10-02T11:49:43.908Z,23.49
2022-10-02T11:52:15.927Z,23.25
2022-10-02T11:55:00.222Z,22.86
2022-10-02T11:58:09.590Z,22.04
2022-10-02T12:01:10.278Z,21.89
2022-10-02T12:04:10.404Z,23.15
2022-10-02T12:06:51.369Z,25.42
2022-10-02T12:09:36.798Z,26.78
2022-10-02T12:12:27.882Z,26.65
2022-10-02T12:15:09.811Z,24.92
2022-10-02T12:17:53.364Z,24.39
2022-10-02T12:20:44.559Z,23.92
2022-10-02T12:23:46.111Z,23.58
2022-10-02T12:27:13.073Z,24.62
2022-10-02T12:29:40.994Z,24.93
2022-10-02T12:32:37.573Z,25.87
2022-10-02T12:35:37.848Z,26.18
2022-10-02T12:38:10.517Z,27.10
2022-10-02T12:40:58.509Z,26.28
2022-10-02T12:43:44.365Z,26.21
2022-10-02T12:47:08.366Z,26.85
2022-10-02T12:49:54.982Z,27.18
2022-10-02T12:53:03.404Z,27.05
2022-10-02T12:55:36.167Z,27.53
2022-10-02T12:58:17.397Z,27.73
2022-10-02T13:00:46.723Z,28.16
2022-10-02T13:03:49.808Z,28.23
2022-10-02T13:06:29.944Z,28.31
2022-10-02T13:09:06.203Z,28.20
2022-10-02T13:11:50.519Z,28.02
2022-10-02T13:14:38.230Z,28.07
2022-10-02T13:17:19.642Z,28.28
2022-10-02T13:19:55.227Z,28.01
2022-10-02T13:22:34.184Z,26.87
2022-10-02T13:25:02.931Z,26.22
2022-10-02T13:28:01.562Z,25.82
2022-10-02T13:30:39.968Z,26.57
2022-10-02T13:33:17.793Z,27.17
2022-10-02T13:35:56.483Z,27.68
2022-10-02T13:38:59.516Z,27.90
2022-10-02T13:42:10.800Z,28.11
2022-10-02T13:44:47.137Z,27.76
2022-10-02T13:47:23.273Z,26.94
2022-10-02T13:50:23.690Z,26.58
2022-10-02T13:53:16.065Z,27.17
2022-10-02T13:55:47.047Z,27.56
2022-10-02T13:58:48.997Z,27.75
2022-10-02T14:01:34.773Z,28.42
2022-10-02T14:04:04.035Z,29.05
2022-10-02T14:06:38.720Z,29.55
2022-10-02T14:09:20.519Z,29.41
2022-10-02T14:12:28.748Z,29.11
2022-10-02T14:15:19.524Z,28.82
2022-10-02T14:18:21.348Z,28.94
2022-10-02T14:21:10.541Z,29.02
2022-10-02T14:23:49.099Z,29.06
2022-10-02T14:26:36.950Z,29.10
2022-10-02T14:29:39.168Z,28.21
2022-10-02T14:32:27.764Z,28.08
2022-10-02T14:35:14.389Z,27.96
2022-10-02T14:37:50.978Z,27.76
2022-10-02T14:40:19.018Z,27.91
2022-10-02T14:43:17.523Z,28.25
2022-10-02T14:45:56.356Z,28.28
2022-10-02T14:48:55.274Z,28.18
2022-10-02T14:51:51.979Z,27.61
2022-10-02T14:54:39.390Z,27.36
2022-10-02T14:57:37.999Z,26.80
2022-10-02T15:00:20.126Z,26.77
2022-10-02T15:02:52.423Z,26.64
2022-10-02T15:05:52.816Z,26.56
2022-10-02T15:08:26.429Z,26.35
2022-10-02T15:10:52.978Z,26.33
2022-10-02T15:13:19.425Z,25.94
2022-10-02T15:16:19.087Z,25.79
2022-10-02T15:18:57.448Z,25.46
2022-10-02T15:21:32.368Z,25.09
2022-10-02T15:24:13.893Z,24.73
2022-10-02T15:26:53.543Z,24.27
2022-10-02T15:29:21.178Z,24.08
2022-10-02T15:32:15.085Z,23.78
2022-10-02T15:35:19.511Z,23.13
2022-10-02T15:38:09.633Z,23.13
2022-10-02T15:40:47.752Z,22.81
2022-10-02T15:43:16.750Z,22.76
2022-10-02T15:45:50.822Z,22.54
2022-10-02T15:48:58.806Z,22.44
2022-10-02T15:51:37.641Z,22.07
2022-10-02T15:54:39.554Z,21.75
2022-10-02T15:57:12.815Z,21.74
2022-10-02T16:00:12.286Z,21.61
2022-10-02T16:02:54.415Z,21.60
2022-10-02T16:05:25.149Z,21.56
2022-10-02T16:07:59.342Z,21.42
2022-10-02T16:10:48.522Z,21.38
2022-10-02T16:13:27.044Z,21.32
2022-10-02T16:16:00.296Z,21.29
2022-10-02T16:18:49.248Z,21.08
2022-10-02T16:21:31.303Z,21.02
2022-10-02T16:24:16.366Z,20.93
2022-10-02T16:27:34.594Z,20.67
2022-10-02T16:30:13.734Z,20.69
2022-10-02T16:33:01.128Z,20.62
2022-10-02T16:35:48.612Z,20.57
2022-10-02T16:38:34.164Z,20.47
2022-10-02T16:41:37.066Z,20.41
2022-10-02T16:44:24.848Z,20.33
2022-10-02T16:47:10.291Z,20.33
2022-10-02T16:50:15.613Z,20.28
2022-10-02T16:52:54.057Z,20.20
2022-10-02T16:55:28.622Z,20.16
2022-10-02T16:58:18.670Z,20.18
2022-10-02T17:01:07.319Z,20.11
2022-10-02T17:03:44.283Z,19.84
2022-10-02T17:06:26.796Z,19.92
2022-10-02T17:09:19.294Z,19.81
2022-10-02T17:11:54.222Z,19.73
2022-10-02T17:14:38.177Z,19.52
2022-10-02T17:17:28.145Z,19.46
2022-10-02T17:20:25.666Z,19.45
2022-10-02T17:23:05.876Z,19.36
2022-10-02T17:25:37.967Z,19.32
2022-10-02T17:28:19.378Z,19.24
2022-10-02T17:31:15.145Z,19.24
2022-10-02T17:33:55.041Z,19.07
2022-10-02T17:36:35.736Z,18.95
2022-10-02T17:39:05.571Z,18.87
2022-10-02T17:42:21.125Z,18.74
2022-10-02T17:45:26.254Z,18.67
2022-10-02T17:47:56.750Z,18.53
2022-10-02T17:50:48.414Z,18.45
2022-10-02T17:53:58.018Z,18.40
2022-10-02T17:56:48.518Z,18.34
2022-10-02T17:59:40.144Z,18.26
2022-10-02T18:02:26.907Z,18.01
2022-10-02T18:05:15.074Z,18.01
2022-10-02T18:08:10.864Z,18.09
2022-10-02T18:11:01.073Z,17.91
2022-10-02T18:13:47.740Z,17.94
2022-10-02T18:16:14.262Z,17.93
2022-10-02T18:18:56.851Z,17.88
2022-10-02T18:21:47.887Z,17.85
2022-10-02T18:24:38.356Z,17.79
2022-10-02T18:27:26.139Z,17.74
2022-10-02T18:30:11.365Z,17.72
2022-10-02T18:35:34.846Z,17.64
2022-10-02T18:38:12.321Z,17.52
2022-10-02T18:41:13.111Z,17.51
2022-10-02T18:43:47.628Z,17.44
2022-10-02T18:46:41.080Z,17.41
2022-10-02T18:49:25.101Z,17.37
2022-10-02T18:52:17.371Z,17.36
2022-10-02T18:55:09.284Z,17.28
2022-10-02T18:57:51.872Z,17.09
2022-10-02T19:00:25.256Z,16.96
2022-10-02T19:03:09.880Z,16.97
2022-10-02T19:05:49.531Z,16.87
2022-10-02T19:08:31.590Z,16.84
2022-10-02T19:10:58.268Z,16.71
2022-10-02T19:13:32.532Z,16.63
2022-10-02T19:16:16.059Z,16.59
2022-10-02T19:18:42.769Z,16.46
2022-10-02T19:21:14.245Z,16.40
2022-10-02T19:23:46.964Z,16.46
2022-10-02T19:26:24.550Z,16.44
2022-10-02T19:28:56.387Z,16.36
2022-10-02T19:31:27.085Z,16.36
2022-10-02T19:33:55.628Z,16.33
2022-10-02T19:36:28.344Z,16.35
2022-10-02T19:39:02.308Z,16.44
2022-10-02T19:41:35.978Z,16.45
2022-10-02T19:44:15.241Z,16.53
2022-10-02T19:46:47.107Z,16.65
2022-10-02T19:49:22.810Z,16.75
2022-10-02T19:51:50.977Z,16.76
2022-10-02T19:54:38.085Z,16.84
2022-10-02T19:57:20.731Z,16.89
2022-10-02T19:59:52.260Z,16.92
2022-10-02T20:02:35.170Z,16.98
2022-10-02T20:05:06.320Z,16.98
2022-10-02T20:07:40.247Z,17.09
2022-10-02T20:10:23.324Z,17.05
2022-10-02T20:13:13.583Z,17.03
2022-10-02T20:16:16.939Z,17.02
2022-10-02T20:18:43.655Z,17.06
2022-10-02T20:21:40.343Z,17.04
2022-10-02T20:24:33.387Z,16.98
2022-10-02T20:27:12.566Z,16.94
2022-10-02T20:29:47.501Z,16.94
2022-10-02T20:32:22.986Z,17.10
2022-10-02T20:35:02.233Z,17.11
2022-10-02T20:37:34.981Z,17.09
2022-10-02T20:40:11.609Z,17.15
2022-10-02T20:42:47.516Z,17.19
2022-10-02T20:45:15.811Z,17.18
2022-10-02T20:48:23.959Z,17.21
2022-10-02T20:51:22.844Z,17.21
2022-10-02T20:54:08.175Z,17.19
2022-10-02T20:56:53.861Z,17.22
2022-10-02T20:59:32.229Z,17.20
2022-10-02T21:02:26.769Z,17.16
2022-10-02T21:05:20.989Z,17.12
2022-10-02T21:08:14.536Z,17.02
2022-10-02T21:10:56.212Z,17.05
2022-10-02T21:13:37.936Z,17.05
2022-10-02T21:16:43.560Z,17.00
2022-10-02T21:19:28.783Z,17.00
2022-10-02T21:22:08.295Z,16.95
2022-10-02T21:25:05.204Z,16.88
2022-10-02T21:27:58.155Z,16.85
2022-10-02T21:30:46.573Z,16.77
2022-10-02T21:33:20.636Z,16.81
2022-10-02T21:35:51.195Z,16.73
2022-10-02T21:38:39.305Z,16.72
2022-10-02T21:41:50.655Z,16.73
2022-10-02T21:44:35.313Z,16.73
2022-10-02T21:47:39.378Z,16.71
2022-10-02T21:50:46.885Z,16.93
2022-10-02T21:53:37.792Z,16.82
2022-10-02T21:56:22.550Z,16.78
2022-10-02T21:59:21.971Z,16.73
2022-10-02T22:02:08.146Z,16.68
2022-10-02T22:04:57.420Z,16.63
2022-10-02T22:07:41.167Z,16.63
2022-10-02T22:10:38.293Z,16.62
2022-10-02T22:13:33.946Z,16.68
2022-10-02T22:16:25.221Z,16.62
2022-10-02T22:18:55.454Z,16.63
2022-10-02T22:21:30.486Z,16.61
2022-10-02T22:23:56.934Z,16.65
2022-10-02T22:26:33.357Z,16.61
2022-10-02T22:29:12.699Z,16.66
2022-10-02T22:31:51.410Z,16.63
2022-10-02T22:34:46.641Z,16.59
2022-10-02T22:37:31.882Z,16.56
2022-10-02T22:40:23.293Z,16.59
2022-10-02T22:43:00.659Z,16.53
2022-10-02T22:45:37.480Z,16.49
2022-10-02T22:48:09.826Z,16.47
2022-10-02T22:50:48.027Z,16.48
2022-10-02T22:53:30.860Z,16.42
2022-10-02T22:55:57.775Z,16.38
2022-10-02T22:58:41.240Z,16.40
2022-10-02T23:01:30.448Z,16.38
2022-10-02T23:04:03.503Z,16.37
2022-10-02T23:06:42.543Z,16.37
2022-10-02T23:09:24.754Z,16.31
2022-10-02T23:12:19.261Z,16.25
2022-10-02T23:15:15.133Z,16.20
2022-10-02T23:17:54.251Z,16.14
2022-10-02T23:20:45.495Z,16.04
2022-10-02T23:23:19.663Z,15.97
2022-10-02T23:26:00.371Z,15.94
2022-10-02T23:28:36.929Z,15.84
2022-10-02T23:31:21.868Z,15.80
2022-10-02T23:34:07.164Z,15.75
2022-10-02T23:36:50.445Z,15.67
2022-10-02T23:40:01.539Z,15.66
2022-10-02T23:42:39.355Z,15.57
2022-10-02T23:45:23.052Z,15.57
2022-10-02T23:48:12.917Z,15.45
2022-10-02T23:50:46.874Z,15.46
2022-10-02T23:53:24.101Z,15.48
2022-10-02T23:56:32.157Z,15.46
2022-10-02T23:59:16.868Z,15.48
